Time;durP1;ratioP1;P1;durP2;ratioP2;P2;SDS_P1;SDS_P2;PMS_P1;PMS_P2;Temp;Humidity;BMP_temperature;BMP_pressure;BME280_temperature;BME280_humidity;BME280_pressure;Samples;Min_cycle;Max_cycle;Signal;HPM_P1;HPM_P2
2023/09/24 00:02:19;;;;;;;988.60;913.57;;;9.90;99.90;;;;;;5073494;28;20530;-71
2023/09/24 00:04:46;;;;;;;1000.50;924.60;;;10.00;99.90;;;;;;5073862;28;20452;-72
2023/09/24 00:07:15;;;;;;;977.33;903.00;;;10.00;99.90;;;;;;5073497;28;20926;-72
2023/09/24 00:09:42;;;;;;;989.43;915.27;;;9.90;99.90;;;;;;5073340;28;20450;-72
2023/09/24 00:12:09;;;;;;;983.83;909.53;;;9.90;99.90;;;;;;5073446;28;20447;-72
2023/09/24 00:14:36;;;;;;;979.50;904.60;;;9.90;99.90;;;;;;5073340;28;20988;-72
2023/09/24 00:17:03;;;;;;;992.17;916.57;;;9.90;99.90;;;;;;5073185;28;20452;-71
2023/09/24 00:19:30;;;;;;;993.10;918.40;;;10.00;99.90;;;;;;5073070;28;20521;-71
2023/09/24 00:21:57;;;;;;;973.57;905.93;;;10.00;99.90;;;;;;5073267;28;20457;-71
2023/09/24 00:24:25;;;;;;;979.87;907.67;;;9.80;99.90;;;;;;5073138;28;20942;-71
2023/09/24 00:26:53;;;;;;;980.20;908.87;;;9.90;99.90;;;;;;5073287;28;20446;-71
2023/09/24 00:29:19;;;;;;;963.47;895.43;;;10.00;99.90;;;;;;5072888;28;20501;-72
2023/09/24 00:31:46;;;;;;;974.50;904.53;;;9.90;99.90;;;;;;5072883;28;20446;-73
2023/09/24 00:34:13;;;;;;;981.17;910.70;;;9.90;99.90;;;;;;5073085;28;20462;-72
2023/09/24 00:36:40;;;;;;;985.57;915.00;;;9.80;99.90;;;;;;5072967;28;20541;-73
2023/09/24 00:39:07;;;;;;;982.80;912.70;;;9.80;99.90;;;;;;5072924;28;20478;-72
2023/09/24 00:41:36;;;;;;;962.90;896.33;;;9.70;99.90;;;;;;5072637;28;20454;-72
2023/09/24 00:44:03;;;;;;;974.27;906.17;;;9.60;99.90;;;;;;5072670;28;20461;-73
2023/09/24 00:46:30;;;;;;;977.90;908.73;;;9.50;99.90;;;;;;5073042;28;20474;-73
2023/09/24 00:48:58;;;;;;;968.90;900.97;;;9.40;99.90;;;;;;5073015;28;20450;-72
2023/09/24 00:51:28;;;;;;;977.93;907.17;;;9.20;99.90;;;;;;5072528;28;20450;-72
2023/09/24 00:53:55;;;;;;;981.83;908.07;;;9.10;99.90;;;;;;5072740;28;20451;-72
2023/09/24 00:56:22;;;;;;;983.97;908.87;;;9.20;99.90;;;;;;5072627;28;20489;-72
2023/09/24 00:58:51;;;;;;;990.37;913.33;;;9.20;99.90;;;;;;5072037;28;20474;-72
2023/09/24 01:01:19;;;;;;;984.97;907.37;;;9.30;99.90;;;;;;5072157;28;20500;-72
2023/09/24 01:03:48;;;;;;;991.90;915.50;;;9.30;99.90;;;;;;5072704;28;20446;-72
2023/09/24 01:06:15;;;;;;;982.20;906.30;;;9.20;99.90;;;;;;5072283;28;20457;-72
2023/09/24 01:08:43;;;;;;;984.30;907.00;;;9.10;99.90;;;;;;5072365;28;20934;-72
2023/09/24 01:11:10;;;;;;;987.07;909.90;;;9.00;99.90;;;;;;5072175;28;20828;-72
2023/09/24 01:13:38;;;;;;;1012.73;933.33;;;8.90;99.90;;;;;;5072637;28;20446;-72
2023/09/24 01:16:07;;;;;;;1008.83;926.67;;;8.90;99.90;;;;;;5072557;28;20860;-72
2023/09/24 01:18:36;;;;;;;1012.97;931.50;;;8.90;99.90;;;;;;5072387;28;20482;-72
2023/09/24 01:21:04;;;;;;;1008.40;929.33;;;8.90;99.90;;;;;;5072091;28;20474;-72
2023/09/24 01:23:37;;;;;;;1011.67;932.57;;;8.80;99.90;;;;;;5072190;28;20813;-72
2023/09/24 01:26:04;;;;;;;1004.77;926.83;;;8.70;99.90;;;;;;5072560;28;20796;-72
2023/09/24 01:28:31;;;;;;;1020.93;939.67;;;8.60;99.90;;;;;;5072420;28;20809;-72
2023/09/24 01:30:59;;;;;;;1022.93;939.70;;;8.60;99.90;;;;;;5072172;28;20457;-72
2023/09/24 01:33:26;;;;;;;1024.97;944.17;;;8.50;99.90;;;;;;5072137;28;20477;-72
2023/09/24 01:35:53;;;;;;;1029.23;943.90;;;8.40;99.90;;;;;;5072204;28;20450;-72
2023/09/24 01:38:20;;;;;;;1038.03;950.50;;;8.40;99.90;;;;;;5071876;28;20545;-72
2023/09/24 01:40:51;;;;;;;1041.87;951.87;;;8.30;99.90;;;;;;5071844;28;20536;-72
2023/09/24 01:43:18;;;;;;;1042.57;953.00;;;8.30;99.90;;;;;;5072306;28;20451;-72
2023/09/24 01:45:47;;;;;;;1056.20;964.73;;;8.30;99.90;;;;;;5072195;28;20446;-72
2023/09/24 01:48:15;;;;;;;1062.60;970.30;;;8.30;99.90;;;;;;5072140;28;20453;-72
2023/09/24 01:50:42;;;;;;;1072.63;978.33;;;8.30;99.90;;;;;;5071701;28;20449;-72
2023/09/24 01:53:09;;;;;;;1062.90;967.70;;;8.20;99.90;;;;;;5072169;28;20450;-72
2023/09/24 01:55:37;;;;;;;1063.83;970.03;;;8.20;99.90;;;;;;5072176;28;20824;-72
2023/09/24 01:58:05;;;;;;;1060.40;968.13;;;8.10;99.90;;;;;;5072066;28;20812;-72
2023/09/24 02:00:32;;;;;;;1063.07;968.70;;;8.10;99.90;;;;;;5071687;28;20478;-72
2023/09/24 02:03:05;;;;;;;1065.47;970.17;;;8.10;99.90;;;;;;5071833;28;20496;-72
2023/09/24 02:05:33;;;;;;;1054.53;954.73;;;8.00;99.90;;;;;;5072110;28;20470;-72
2023/09/24 02:08:00;;;;;;;1061.80;962.03;;;8.10;99.90;;;;;;5071957;28;20454;-72
2023/09/24 02:10:27;;;;;;;1058.83;958.93;;;8.10;99.90;;;;;;5071706;28;20820;-71
2023/09/24 02:12:54;;;;;;;1064.67;960.97;;;8.20;99.90;;;;;;5071762;28;20451;-72
2023/09/24 02:15:23;;;;;;;1059.63;958.13;;;8.30;99.90;;;;;;5071756;28;20538;-72
2023/09/24 02:17:50;;;;;;;1058.70;959.23;;;8.20;99.90;;;;;;5074408;28;20791;-72
2023/09/24 02:20:23;;;;;;;1060.33;959.53;;;8.10;99.90;;;;;;5075618;28;20560;-72
2023/09/24 02:22:52;;;;;;;1065.73;967.20;;;8.10;99.90;;;;;;5075467;28;20482;-72
2023/09/24 02:25:19;;;;;;;1043.20;946.00;;;8.00;99.90;;;;;;5075502;28;20524;-72
2023/09/24 02:27:46;;;;;;;1050.23;954.53;;;7.90;99.90;;;;;;5075526;28;20503;-72
2023/09/24 02:30:15;;;;;;;1047.00;951.70;;;7.80;99.90;;;;;;5075212;28;20896;-72
2023/09/24 02:32:44;;;;;;;1042.40;946.27;;;7.70;99.90;;;;;;5075495;28;20446;-71
2023/09/24 02:35:12;;;;;;;1055.07;958.80;;;7.70;99.90;;;;;;5074909;28;20490;-72
2023/09/24 02:37:39;;;;;;;1059.57;963.37;;;7.70;99.90;;;;;;5075365;28;20533;-72
2023/09/24 02:40:17;;;;;;;1058.80;961.40;;;7.60;99.90;;;;;;5075039;28;20477;-71
2023/09/24 02:42:46;;;;;;;1053.53;955.53;;;7.60;99.90;;;;;;5075055;28;20942;-71
2023/09/24 02:45:15;;;;;;;1045.00;946.80;;;7.60;99.90;;;;;;5075302;28;20446;-71
2023/09/24 02:47:44;;;;;;;1056.97;958.07;;;7.50;99.90;;;;;;5075222;28;20458;-71
2023/09/24 02:50:13;;;;;;;1051.17;952.53;;;7.60;99.90;;;;;;5075223;28;20859;-71
2023/09/24 02:52:41;;;;;;;1054.60;953.30;;;7.60;99.90;;;;;;5075082;28;20746;-71
2023/09/24 02:55:10;;;;;;;1055.37;955.50;;;7.50;99.90;;;;;;5075052;28;20571;-71
2023/09/24 02:57:38;;;;;;;1047.37;948.07;;;7.60;99.90;;;;;;5074795;28;20500;-71
2023/09/24 03:00:12;;;;;;;1059.40;956.27;;;7.50;99.90;;;;;;5074675;28;20517;-71
2023/09/24 03:02:39;;;;;;;1051.07;945.17;;;7.50;99.90;;;;;;5074931;28;20450;-71
2023/09/24 03:05:11;;;;;;;1052.00;945.97;;;7.50;99.90;;;;;;5074830;28;20491;-71
2023/09/24 03:07:40;;;;;;;1045.10;940.83;;;7.50;99.90;;;;;;5074830;28;20454;-71
2023/09/24 03:10:10;;;;;;;1055.00;948.57;;;7.50;99.90;;;;;;5074506;28;20946;-71
2023/09/24 03:12:37;;;;;;;1050.57;945.67;;;7.60;99.90;;;;;;5074506;28;20938;-71
2023/09/24 03:15:06;;;;;;;1046.73;940.43;;;7.60;99.90;;;;;;5074998;28;20473;-71
2023/09/24 03:17:34;;;;;;;1040.67;935.60;;;7.60;99.90;;;;;;5074514;28;20986;-71
2023/09/24 03:20:11;;;;;;;1038.50;930.20;;;7.70;99.90;;;;;;5074329;28;20470;-70
2023/09/24 03:22:39;;;;;;;1040.67;931.93;;;7.70;99.90;;;;;;5074394;28;20461;-70
2023/09/24 03:25:08;;;;;;;1048.53;940.23;;;7.70;99.90;;;;;;5074721;28;20602;-70
2023/09/24 03:27:35;;;;;;;1036.30;929.00;;;7.70;99.90;;;;;;5074093;28;20450;-70
2023/09/24 03:30:02;;;;;;;1042.97;933.53;;;7.60;99.90;;;;;;5073783;28;20899;-70
2023/09/24 03:32:31;;;;;;;1035.90;927.30;;;7.70;99.90;;;;;;5073739;28;20869;-70
2023/09/24 03:34:58;;;;;;;1038.30;929.10;;;7.70;99.90;;;;;;5074152;28;20459;-70
2023/09/24 03:37:25;;;;;;;1038.63;928.70;;;7.70;99.90;;;;;;5074182;28;20451;-70
2023/09/24 03:39:53;;;;;;;1036.90;927.40;;;7.70;99.90;;;;;;5074166;28;20561;-70
2023/09/24 03:42:20;;;;;;;1035.83;923.93;;;7.80;99.90;;;;;;5074143;28;20461;-70
2023/09/24 03:44:47;;;;;;;1041.80;932.40;;;7.80;99.90;;;;;;5074265;28;20447;-70
2023/09/24 03:47:14;;;;;;;1042.40;930.60;;;7.70;99.90;;;;;;5073983;28;20536;-70
2023/09/24 03:49:42;;;;;;;1041.67;931.57;;;7.70;99.90;;;;;;5073635;28;20446;-70
2023/09/24 03:52:10;;;;;;;1033.70;923.60;;;7.60;99.90;;;;;;5073711;28;20453;-70
2023/09/24 03:54:38;;;;;;;1038.13;926.07;;;7.60;99.90;;;;;;5073851;28;20520;-70
2023/09/24 03:57:06;;;;;;;1037.20;924.33;;;7.60;99.90;;;;;;5074311;28;20516;-70
2023/09/24 03:59:36;;;;;;;1033.53;920.07;;;7.70;99.90;;;;;;5073679;28;20876;-70
2023/09/24 04:02:06;;;;;;;1026.10;914.00;;;7.70;99.90;;;;;;5073460;28;20453;-70
2023/09/24 04:04:33;;;;;;;1033.33;923.27;;;7.70;99.90;;;;;;5073776;28;20476;-70
2023/09/24 04:07:02;;;;;;;1037.50;926.30;;;7.70;99.90;;;;;;5073778;28;20891;-70
2023/09/24 04:09:32;;;;;;;1034.50;921.83;;;7.60;99.90;;;;;;5073569;28;20492;-70
2023/09/24 04:11:59;;;;;;;1028.43;916.53;;;7.60;99.90;;;;;;5073652;28;20465;-70
2023/09/24 04:14:28;;;;;;;1032.10;917.97;;;7.50;99.90;;;;;;5073344;28;20449;-70
2023/09/24 04:16:56;;;;;;;1028.10;914.20;;;7.60;99.90;;;;;;5073649;28;20453;-70
2023/09/24 04:19:23;;;;;;;1027.37;914.47;;;7.60;99.90;;;;;;5073346;28;20446;-70
2023/09/24 04:21:50;;;;;;;1032.00;919.40;;;7.50;99.90;;;;;;5073267;28;20451;-70
2023/09/24 04:24:17;;;;;;;1044.93;933.40;;;7.50;99.90;;;;;;5073379;28;20456;-70
2023/09/24 04:26:45;;;;;;;1043.20;929.60;;;7.50;99.90;;;;;;5073192;28;20450;-70
2023/09/24 04:29:12;;;;;;;1048.03;933.53;;;7.50;99.90;;;;;;5072862;28;20447;-70
2023/09/24 04:31:40;;;;;;;1043.30;927.43;;;7.60;99.90;;;;;;5073094;28;20777;-70
2023/09/24 04:34:09;;;;;;;1042.00;927.00;;;7.60;99.90;;;;;;5073034;28;20515;-70
2023/09/24 04:36:36;;;;;;;1047.33;931.47;;;7.60;99.90;;;;;;5073129;28;20837;-70
2023/09/24 04:39:06;;;;;;;1043.97;929.10;;;7.60;99.90;;;;;;5072292;28;20482;-70
2023/09/24 04:41:34;;;;;;;1041.70;927.57;;;7.60;99.90;;;;;;5072588;28;20478;-70
2023/09/24 04:44:01;;;;;;;1047.50;932.07;;;7.60;99.90;;;;;;5072834;28;20462;-70
2023/09/24 04:46:28;;;;;;;1045.20;922.40;;;7.70;99.90;;;;;;5073080;28;20455;-70
2023/09/24 04:48:56;;;;;;;1044.67;919.13;;;7.70;99.90;;;;;;5073115;28;20457;-70
2023/09/24 04:51:23;;;;;;;1058.77;924.77;;;7.60;99.90;;;;;;5072638;28;20500;-70
2023/09/24 04:53:49;;;;;;;1055.43;931.43;;;7.50;99.90;;;;;;5072695;28;20446;-70
2023/09/24 04:56:16;;;;;;;1058.83;928.07;;;7.50;99.90;;;;;;5072624;28;20536;-70
2023/09/24 04:58:43;;;;;;;1062.10;928.17;;;7.50;99.90;;;;;;5072941;28;20450;-70
2023/09/24 05:01:10;;;;;;;1057.10;929.53;;;7.50;99.90;;;;;;5072317;28;20481;-70
2023/09/24 05:03:38;;;;;;;1061.37;937.80;;;7.40;99.90;;;;;;5072465;28;20545;-70
2023/09/24 05:06:06;;;;;;;1044.37;923.13;;;7.40;99.90;;;;;;5072504;28;20452;-70
2023/09/24 05:08:34;;;;;;;1054.33;925.10;;;7.30;99.90;;;;;;5072367;28;20454;-70
2023/09/24 05:11:02;;;;;;;1045.57;929.83;;;7.30;99.90;;;;;;5072457;28;20443;-70
2023/09/24 05:13:30;;;;;;;1050.87;926.10;;;7.20;99.90;;;;;;5072760;28;20449;-69
2023/09/24 05:16:00;;;;;;;1047.70;931.70;;;7.20;99.90;;;;;;5072613;28;20450;-70
2023/09/24 05:18:27;;;;;;;1047.30;930.40;;;7.10;99.90;;;;;;5072396;28;20454;-69
2023/09/24 05:20:55;;;;;;;1051.07;923.77;;;7.10;99.90;;;;;;5072584;28;20481;-69
2023/09/24 05:23:23;;;;;;;1046.07;928.57;;;7.00;99.90;;;;;;5071910;28;20452;-70
2023/09/24 05:25:50;;;;;;;1040.17;926.00;;;7.00;99.90;;;;;;5072273;28;20511;-70
2023/09/24 05:28:17;;;;;;;1052.47;939.10;;;7.00;99.90;;;;;;5072373;28;20531;-70
2023/09/24 05:30:51;;;;;;;1047.80;935.00;;;6.90;99.90;;;;;;5071784;28;20449;-70
2023/09/24 05:33:18;;;;;;;1039.53;926.33;;;6.90;99.90;;;;;;5071736;28;20454;-70
2023/09/24 05:35:49;;;;;;;1037.10;923.17;;;6.90;99.90;;;;;;5071321;28;20446;-70
2023/09/24 05:38:16;;;;;;;1033.27;920.57;;;6.80;99.90;;;;;;5071703;28;20964;-70
2023/09/24 05:40:44;;;;;;;1034.57;921.27;;;6.90;99.90;;;;;;5071880;28;20479;-70
2023/09/24 05:43:11;;;;;;;1032.73;919.17;;;6.80;99.90;;;;;;5072220;28;20455;-70
2023/09/24 05:45:45;;;;;;;1031.37;918.20;;;6.90;99.90;;;;;;5072206;28;20446;-70
2023/09/24 05:48:13;;;;;;;1024.40;910.43;;;6.90;99.90;;;;;;5071938;28;20453;-70
2023/09/24 05:50:39;;;;;;;1036.73;923.50;;;6.90;99.90;;;;;;5072259;28;20443;-70
2023/09/24 05:53:07;;;;;;;1032.37;917.70;;;6.90;99.90;;;;;;5075674;28;20473;-70
2023/09/24 05:55:34;;;;;;;1046.57;912.87;;;6.90;99.90;;;;;;5076322;28;20547;-69
2023/09/24 05:58:03;;;;;;;1037.07;909.60;;;7.00;99.90;;;;;;5075665;28;20697;-71
2023/09/24 06:00:31;;;;;;;1016.37;903.77;;;7.10;99.90;;;;;;5075305;28;20470;-70
2023/09/24 06:02:58;;;;;;;1014.57;902.50;;;7.10;99.90;;;;;;5075933;28;20504;-69
2023/09/24 06:05:25;;;;;;;1024.20;898.43;;;7.10;99.90;;;;;;5074793;28;20446;-69
2023/09/24 06:07:52;;;;;;;1038.77;903.77;;;7.20;99.90;;;;;;5074606;28;20450;-69
2023/09/24 06:10:20;;;;;;;1038.43;896.83;;;7.30;99.90;;;;;;5074866;28;20815;-69
2023/09/24 06:12:47;;;;;;;1028.37;901.43;;;7.40;99.90;;;;;;5075497;28;20446;-69
2023/09/24 06:15:17;;;;;;;1034.50;880.10;;;7.50;99.90;;;;;;5075481;28;20469;-69
2023/09/24 06:17:44;;;;;;;1033.27;877.23;;;7.70;99.90;;;;;;5075815;28;20513;-70
2023/09/24 06:20:12;;;;;;;1034.90;893.70;;;7.80;99.90;;;;;;5074957;28;20496;-70
2023/09/24 06:22:40;;;;;;;1033.67;892.50;;;8.00;99.90;;;;;;5075360;28;20450;-70
2023/09/24 06:25:07;;;;;;;1042.53;893.30;;;8.10;99.90;;;;;;5075308;28;20486;-70
2023/09/24 06:27:34;;;;;;;1036.10;889.40;;;8.20;99.90;;;;;;5075252;28;20442;-70
2023/09/24 06:30:04;;;;;;;1019.17;903.17;;;8.30;99.90;;;;;;5075015;28;20446;-70
2023/09/24 06:32:32;;;;;;;1010.97;898.80;;;8.50;99.90;;;;;;5075374;28;20913;-69
2023/09/24 06:34:59;;;;;;;998.53;888.27;;;8.70;99.90;;;;;;5075174;28;20464;-70
2023/09/24 06:37:25;;;;;;;1026.50;888.70;;;8.90;99.90;;;;;;5075392;28;20876;-70
2023/09/24 06:39:52;;;;;;;1034.43;896.40;;;9.00;99.90;;;;;;5074891;28;20450;-72
2023/09/24 06:42:19;;;;;;;1032.87;884.60;;;9.10;99.90;;;;;;5075110;28;20451;-71
2023/09/24 06:44:46;;;;;;;1033.07;883.40;;;9.20;99.90;;;;;;5075071;28;20460;-71
2023/09/24 06:47:12;;;;;;;1033.80;881.87;;;9.30;99.90;;;;;;5075353;28;20454;-70
2023/09/24 06:49:41;;;;;;;1020.67;885.17;;;9.50;99.90;;;;;;5074775;28;20442;-71
2023/09/24 06:52:07;;;;;;;1034.87;880.03;;;9.60;99.90;;;;;;5075011;28;20442;-70
2023/09/24 06:54:34;;;;;;;1027.57;883.50;;;9.70;99.90;;;;;;5074788;28;20510;-71
2023/09/24 06:57:01;;;;;;;1010.77;881.67;;;9.90;99.90;;;;;;5074775;28;20452;-71
2023/09/24 06:59:28;;;;;;;1032.10;874.20;;;10.00;99.90;;;;;;5074889;28;20447;-71
2023/09/24 07:01:55;;;;;;;1021.13;872.00;;;10.10;99.90;;;;;;5074080;28;20485;-71
2023/09/24 07:04:22;;;;;;;1027.73;870.60;;;10.30;99.90;;;;;;5074341;28;20620;-71
2023/09/24 07:06:51;;;;;;;1019.80;882.60;;;10.40;99.90;;;;;;5074159;28;20446;-70
2023/09/24 07:09:18;;;;;;;993.27;881.20;;;10.50;99.90;;;;;;5074065;28;20543;-70
2023/09/24 07:11:45;;;;;;;1005.53;869.77;;;10.60;99.90;;;;;;5073780;28;20537;-71
2023/09/24 07:14:12;;;;;;;980.57;873.83;;;10.70;99.90;;;;;;5073835;28;20571;-71
2023/09/24 07:16:39;;;;;;;981.53;877.93;;;10.90;99.90;;;;;;5081450;28;20446;-71
2023/09/24 07:19:06;;;;;;;981.03;880.27;;;11.00;99.90;;;;;;5094609;28;20460;-70
2023/09/24 07:21:33;;;;;;;983.63;884.37;;;11.10;99.90;;;;;;5093967;28;20480;-72
2023/09/24 07:24:03;;;;;;;977.43;880.63;;;11.20;99.90;;;;;;5094065;28;20449;-71
2023/09/24 07:26:29;;;;;;;972.53;876.73;;;11.30;99.90;;;;;;5076710;28;20450;-71
2023/09/24 07:28:56;;;;;;;980.27;885.60;;;11.40;99.90;;;;;;5073669;28;20453;-71
2023/09/24 07:31:25;;;;;;;983.20;892.80;;;11.40;99.90;;;;;;5073883;28;20438;-71
2023/09/24 07:33:53;;;;;;;990.72;902.70;;;11.50;99.90;;;;;;5073566;28;20446;-70
2023/09/24 07:36:21;;;;;;;990.25;913.40;;;11.50;99.90;;;;;;5072404;28;20928;-71
2023/09/24 07:38:49;;;;;;;975.63;903.80;;;11.60;99.90;;;;;;5072596;28;20224;-70
2023/09/24 07:41:21;;;;;;;963.40;894.30;;;11.70;99.90;;;;;;5073044;28;20485;-71
2023/09/24 07:43:48;;;;;;;951.83;885.43;;;11.80;99.90;;;;;;5073605;28;20451;-71
2023/09/24 07:46:15;;;;;;;938.93;875.70;;;11.80;99.90;;;;;;5073396;28;20458;-71
2023/09/24 07:48:43;;;;;;;924.43;863.10;;;11.90;99.90;;;;;;5072468;28;20447;-65
2023/09/24 07:51:10;;;;;;;911.47;854.07;;;12.00;99.90;;;;;;5072994;28;20473;-64
2023/09/24 07:53:37;;;;;;;897.37;842.27;;;12.10;99.90;;;;;;5073068;28;20539;-64
2023/09/24 07:56:07;;;;;;;849.13;799.43;;;12.20;99.90;;;;;;5073972;28;20442;-65
2023/09/24 07:58:36;;;;;;;815.53;768.77;;;12.30;99.90;;;;;;5073957;28;20457;-65
2023/09/24 08:01:04;;;;;;;743.73;705.60;;;12.50;99.90;;;;;;5072356;28;20469;-66
2023/09/24 08:03:31;;;;;;;736.23;699.17;;;12.50;99.90;;;;;;5072728;28;20450;-72
2023/09/24 08:05:58;;;;;;;671.73;640.93;;;12.60;99.90;;;;;;5072642;28;20533;-72
2023/09/24 08:08:26;;;;;;;634.87;606.43;;;12.70;99.90;;;;;;5073482;28;20476;-72
2023/09/24 08:10:53;;;;;;;467.67;450.13;;;12.90;99.90;;;;;;5072454;28;20442;-72
2023/09/24 08:13:20;;;;;;;385.80;372.40;;;13.00;99.90;;;;;;5072377;28;20449;-72
2023/09/24 08:15:49;;;;;;;366.03;353.23;;;13.10;99.90;;;;;;5071811;28;20809;-66
2023/09/24 08:18:16;;;;;;;290.23;280.53;;;13.20;99.90;;;;;;5072382;28;20508;-66
2023/09/24 08:20:44;;;;;;;271.30;262.90;;;13.50;99.90;;;;;;5072342;28;20474;-67
2023/09/24 08:23:12;;;;;;;246.67;238.83;;;13.70;99.90;;;;;;5073271;28;20451;-67
2023/09/24 08:25:40;;;;;;;30.30;28.73;;;14.10;99.90;;;;;;5073250;28;20462;-67
2023/09/24 08:28:08;;;;;;;9.47;7.80;;;14.30;99.90;;;;;;5072487;28;20881;-66
2023/09/24 08:30:35;;;;;;;6.10;4.30;;;14.50;99.90;;;;;;5072551;28;20451;-66
2023/09/24 08:33:04;;;;;;;7.13;4.03;;;14.70;99.90;;;;;;5072886;28;20452;-67
2023/09/24 08:35:32;;;;;;;8.73;3.40;;;14.90;99.90;;;;;;5071584;28;20826;-66
2023/09/24 08:37:59;;;;;;;6.90;2.90;;;15.20;99.90;;;;;;5073157;28;20510;-66
2023/09/24 08:40:29;;;;;;;10.10;3.20;;;15.50;99.90;;;;;;5072839;28;20453;-67
2023/09/24 08:42:57;;;;;;;7.73;2.77;;;15.80;99.90;;;;;;5073285;28;20445;-67
2023/09/24 08:45:26;;;;;;;6.60;2.50;;;16.00;99.90;;;;;;5069730;28;20446;-67
2023/09/24 08:47:53;;;;;;;7.33;2.60;;;16.30;99.90;;;;;;5073096;28;20479;-66
2023/09/24 08:50:22;;;;;;;5.40;2.40;;;16.50;99.90;;;;;;5072766;28;20529;-66
2023/09/24 08:52:48;;;;;;;7.30;2.17;;;16.90;99.90;;;;;;5072919;28;20480;-67
2023/09/24 08:55:15;;;;;;;5.30;2.23;;;17.00;99.90;;;;;;5072885;28;20445;-66
2023/09/24 08:57:44;;;;;;;10.20;2.33;;;17.20;99.90;;;;;;5072794;28;20454;-66
2023/09/24 09:00:14;;;;;;;6.63;2.50;;;17.60;99.90;;;;;;5072477;28;20500;-66
2023/09/24 09:02:43;;;;;;;6.60;2.40;;;17.80;99.90;;;;;;5071612;28;20984;-65
2023/09/24 09:05:13;;;;;;;4.87;1.93;;;18.20;96.10;;;;;;5072064;28;20529;-66
2023/09/24 09:07:55;;;;;;;6.63;2.40;;;18.50;97.80;;;;;;5071029;28;20483;-66
2023/09/24 09:10:26;;;;;;;5.67;2.50;;;18.80;94.60;;;;;;5067968;28;20463;-66
2023/09/24 09:13:02;;;;;;;8.33;2.33;;;19.10;88.40;;;;;;5072059;28;20450;-66
2023/09/24 09:15:29;;;;;;;6.47;2.37;;;19.40;85.50;;;;;;5065709;28;20549;-72
2023/09/24 09:17:56;;;;;;;7.53;2.40;;;19.70;85.80;;;;;;5070810;28;20453;-72
2023/09/24 09:20:39;;;;;;;5.13;2.00;;;20.10;86.00;;;;;;5072074;28;20442;-72
2023/09/24 09:23:11;;;;;;;5.80;2.33;;;20.50;70.60;;;;;;5070969;28;20477;-73
2023/09/24 09:25:48;;;;;;;13.73;2.23;;;20.80;65.70;;;;;;5068096;28;20462;-72
2023/09/24 09:28:25;;;;;;;5.97;1.80;;;21.10;54.30;;;;;;5071755;28;20503;-73
2023/09/24 09:31:04;;;;;;;6.37;1.60;;;21.40;47.50;;;;;;5071811;28;20466;-73
2023/09/24 09:33:33;;;;;;;4.67;1.47;;;21.40;53.70;;;;;;5071993;28;20508;-66
2023/09/24 09:36:01;;;;;;;5.40;1.57;;;21.60;45.80;;;;;;5072541;28;20521;-66
2023/09/24 09:38:30;;;;;;;7.53;2.27;;;21.80;42.90;;;;;;5072145;28;21013;-66
2023/09/24 09:40:58;;;;;;;6.30;1.83;;;22.00;46.20;;;;;;5069981;28;20456;-65
2023/09/24 09:43:26;;;;;;;8.73;1.77;;;21.90;38.90;;;;;;5087725;28;20859;-66
2023/09/24 09:45:55;;;;;;;5.20;1.97;;;22.60;37.70;;;;;;5068628;28;20477;-65
2023/09/24 09:48:30;;;;;;;5.60;1.60;;;22.80;36.00;;;;;;5069774;28;20458;-65
2023/09/24 09:51:02;;;;;;;6.10;1.97;;;23.00;30.40;;;;;;5070466;28;20478;-66
2023/09/24 09:53:34;;;;;;;7.10;1.80;;;22.90;29.10;;;;;;5070419;28;20454;-72
2023/09/24 09:56:03;;;;;;;6.17;1.83;;;23.00;24.40;;;;;;5069671;28;20474;-72
2023/09/24 09:58:37;;;;;;;8.03;1.60;;;23.10;22.00;;;;;;5069147;28;20450;-74
2023/09/24 10:01:06;;;;;;;6.50;2.00;;;23.30;22.10;;;;;;5070056;28;20454;-72
2023/09/24 10:03:35;;;;;;;5.73;1.30;;;23.50;22.20;;;;;;5070621;28;20966;-72
2023/09/24 10:06:03;;;;;;;6.83;1.80;;;23.70;19.60;;;;;;5071329;28;20450;-73
2023/09/24 10:08:41;;;;;;;6.07;1.90;;;23.80;18.70;;;;;;5068877;28;20946;-73
2023/09/24 10:11:09;;;;;;;5.33;1.90;;;24.10;15.90;;;;;;5068879;28;20468;-72
2023/09/24 10:13:47;;;;;;;5.30;1.77;;;24.30;15.30;;;;;;5070371;28;20442;-72
2023/09/24 10:16:41;;;;;;;5.40;1.80;;;24.60;13.30;;;;;;5072007;28;20454;-73
2023/09/24 10:19:10;;;;;;;5.40;1.20;;;24.70;7.90;;;;;;5047049;28;20446;-73
2023/09/24 10:21:38;;;;;;;9.00;1.63;;;24.90;11.10;;;;;;5070806;28;20528;-73
2023/09/24 10:24:42;;;;;;;5.70;1.57;;;25.00;8.10;;;;;;5070188;28;20503;-72
2023/09/24 10:27:09;;;;;;;9.27;2.13;;;24.90;8.10;;;;;;5070742;28;20438;-73
2023/09/24 10:30:00;;;;;;;8.60;1.90;;;24.50;7.70;;;;;;5069493;28;20446;-73
2023/09/24 10:32:27;;;;;;;6.20;1.70;;;24.60;6.20;;;;;;5070691;28;20870;-72
2023/09/24 10:35:10;;;;;;;5.80;1.20;;;24.80;5.30;;;;;;5071694;28;20776;-73
2023/09/24 10:37:56;;;;;;;6.07;1.60;;;24.90;1.00;;;;;;5072462;28;20445;-72
2023/09/24 10:40:26;;;;;;;6.60;1.93;;;25.10;1.00;;;;;;5075326;28;20445;-73
2023/09/24 10:43:18;;;;;;;6.30;2.13;;;24.90;1.00;;;;;;5075201;28;20557;-73
2023/09/24 10:45:46;;;;;;;5.37;1.87;;;24.90;7.80;;;;;;5075187;28;20446;-72
2023/09/24 10:48:14;;;;;;;6.20;2.10;;;25.00;4.20;;;;;;5072252;28;20537;-73
2023/09/24 10:50:43;;;;;;;5.90;2.20;;;25.20;1.00;;;;;;5074466;28;21012;-72
2023/09/24 10:53:10;;;;;;;7.10;1.97;;;25.40;1.00;;;;;;5074692;28;20438;-73
2023/09/24 10:55:41;;;;;;;6.40;1.90;;;25.40;1.00;;;;;;5075124;28;20452;-73
2023/09/24 10:58:14;;;;;;;5.47;1.63;;;25.60;1.00;;;;;;5075133;28;20446;-73
2023/09/24 11:00:43;;;;;;;5.57;2.00;;;25.60;1.00;;;;;;5074683;28;20545;-72
2023/09/24 11:03:12;;;;;;;6.80;1.70;;;25.30;1.00;;;;;;5074250;28;20474;-73
2023/09/24 11:05:47;;;;;;;8.70;1.60;;;25.40;1.00;;;;;;5074184;28;20853;-73
2023/09/24 11:08:16;;;;;;;5.30;1.50;;;25.60;1.00;;;;;;5074206;28;20449;-72
2023/09/24 11:10:48;;;;;;;11.33;1.90;;;25.70;1.00;;;;;;5073908;28;20549;-72
2023/09/24 11:13:15;;;;;;;5.60;1.77;;;25.60;1.00;;;;;;5074684;28;20446;-73
2023/09/24 11:15:42;;;;;;;6.30;1.83;;;25.80;1.00;;;;;;5074077;28;20795;-74
2023/09/24 11:18:11;;;;;;;6.07;1.77;;;25.80;1.00;;;;;;5073730;28;20512;-73
2023/09/24 11:20:38;;;;;;;7.27;1.97;;;26.20;1.00;;;;;;5069232;28;20454;-65
2023/09/24 11:23:08;;;;;;;6.47;1.57;;;26.20;1.00;;;;;;5073773;28;20564;-65
2023/09/24 11:25:39;;;;;;;5.20;1.43;;;26.60;1.00;;;;;;5074322;28;20504;-65
2023/09/24 11:28:07;;;;;;;6.70;1.80;;;26.60;1.00;;;;;;5073965;28;20446;-65
2023/09/24 11:30:41;;;;;;;5.70;1.83;;;26.90;1.00;;;;;;5074304;28;20453;-66
2023/09/24 11:33:13;;;;;;;6.63;1.47;;;27.00;1.00;;;;;;5074250;28;20445;-65
2023/09/24 11:35:40;;;;;;;6.10;2.00;;;26.90;1.00;;;;;;5073317;28;20442;-65
2023/09/24 11:38:07;;;;;;;4.23;1.10;;;27.20;1.00;;;;;;5073846;28;20446;-65
2023/09/24 11:40:35;;;;;;;5.00;1.27;;;26.90;1.00;;;;;;5073537;28;20814;-65
2023/09/24 11:43:03;;;;;;;9.20;1.83;;;26.60;1.00;;;;;;5073922;28;20477;-65
2023/09/24 11:45:44;;;;;;;5.83;1.23;;;26.40;1.00;;;;;;5074354;28;20818;-65
2023/09/24 11:48:13;;;;;;;6.00;1.40;;;26.20;1.00;;;;;;5073868;28;20450;-65
2023/09/24 11:50:41;;;;;;;4.50;1.27;;;26.40;1.00;;;;;;5074064;28;20499;-66
2023/09/24 11:53:09;;;;;;;5.07;1.30;;;26.70;1.00;;;;;;5073923;28;20449;-65
2023/09/24 11:55:35;;;;;;;4.87;1.33;;;27.10;1.00;;;;;;5073955;28;20446;-65
2023/09/24 11:58:04;;;;;;;5.20;1.50;;;27.20;1.00;;;;;;5074065;28;20859;-65
2023/09/24 12:00:31;;;;;;;4.83;1.27;;;27.70;1.00;;;;;;5073861;28;20495;-65
2023/09/24 12:03:00;;;;;;;4.63;1.40;;;27.80;1.00;;;;;;5073829;28;21061;-65
2023/09/24 12:05:27;;;;;;;5.53;1.50;;;27.90;1.00;;;;;;5073582;28;20534;-65
2023/09/24 12:07:54;;;;;;;4.90;1.33;;;27.80;1.00;;;;;;5073024;28;20468;-65
2023/09/24 12:10:22;;;;;;;4.97;1.00;;;27.60;1.00;;;;;;5073192;28;20618;-65
2023/09/24 12:12:50;;;;;;;5.80;1.40;;;28.00;1.00;;;;;;5073699;28;20446;-65
2023/09/24 12:15:17;;;;;;;4.87;1.30;;;28.40;1.00;;;;;;5073603;28;20975;-65
2023/09/24 12:17:45;;;;;;;5.43;1.33;;;28.20;1.00;;;;;;5073555;28;20869;-65
2023/09/24 12:20:14;;;;;;;5.30;1.80;;;27.90;1.00;;;;;;5073388;28;20447;-65
2023/09/24 12:22:43;;;;;;;5.10;1.60;;;28.10;1.00;;;;;;5073411;28;20478;-63
2023/09/24 12:25:11;;;;;;;4.67;1.00;;;27.90;1.00;;;;;;5073499;28;20515;-65
2023/09/24 12:27:39;;;;;;;6.77;1.60;;;27.90;1.00;;;;;;5073383;28;20447;-66
2023/09/24 12:30:08;;;;;;;4.57;1.10;;;27.90;1.00;;;;;;5073248;28;20450;-66
2023/09/24 12:32:35;;;;;;;5.93;1.13;;;27.90;1.00;;;;;;5072975;28;20442;-66